METAR Data
IDs: Format: Raw Decoded Include TAF

Data at: 2227 UTC 02 Aug 2021

YPAD 022200Z 23017KT 9999 BKN028 SCT062 11/06 Q1015